Keremeos, Canada
Current Conditions -  °F | °C
As of 12:00 PM on Monday 24 Nov 2014 (Local Time) from CYYF Reporting Station
Overcast Overcast  
Wind Chill: 27°   Ceiling: 9000
Heat Index: 37°   Visibility: 15mi
Dew Point: 27°   Wind: 22mph
Humidity: 65%   Direction: 170°S
Pressure: 30.22"   Gusts: NA
Location:  49.2°N, 119.82°W
Report Text: CYYF 242000Z 17019KT 15SM FEW060 BKN090 OVC140 03/M03 A3022 RMK SC1AC6AC1 SLP247
Loading
Personal Weather Stations






























Interactive Weather Map New forecast layout! Learn more

10-Day Weather Forecast

Advertisements
Track Severe Weather on mobile